Time;durP1;ratioP1;P1;durP2;ratioP2;P2;SDS_P1;SDS_P2;PMS_P1;PMS_P2;Temp;Humidity;BMP_temperature;BMP_pressure;BME280_temperature;BME280_humidity;BME280_pressure;Samples;Min_cycle;Max_cycle;Signal;HPM_P1;HPM_P2
2022/11/25 04:22:00;;;;;;;4.00;1.00;;;7.30;99.90;;;;;;5750670;23;20130;-77
2022/11/25 04:24:26;;;;;;;4.97;1.30;;;7.30;99.90;;;;;;4975622;28;20046;-78
2022/11/25 04:26:53;;;;;;;3.05;0.95;;;7.30;99.90;;;;;;4976338;28;20497;-78
2022/11/25 04:29:20;;;;;;;4.35;1.00;;;7.30;99.90;;;;;;4958836;28;20051;-78
2022/11/25 04:31:47;;;;;;;5.13;0.95;;;7.30;99.90;;;;;;4976802;28;20047;-78
2022/11/25 04:34:14;;;;;;;6.47;1.27;;;7.40;99.90;;;;;;4988527;28;20088;-78
2022/11/25 04:36:40;;;;;;;4.07;1.05;;;7.40;99.90;;;;;;4988731;28;20514;-78
2022/11/25 04:39:07;;;;;;;4.90;1.52;;;7.40;99.90;;;;;;4977914;28;20525;-77
2022/11/25 04:41:34;;;;;;;3.60;1.00;;;7.50;99.90;;;;;;4988439;28;20057;-78
2022/11/25 04:44:01;;;;;;;5.13;1.20;;;7.50;99.90;;;;;;4977749;28;20061;-78
2022/11/25 04:46:35;;;;;;;4.30;0.95;;;7.50;99.90;;;;;;4980412;28;20061;-78
2022/11/25 04:49:01;;;;;;;3.53;1.17;;;7.60;99.90;;;;;;4990501;28;20054;-77
2022/11/25 04:51:28;;;;;;;2.55;1.40;;;7.60;99.90;;;;;;4989001;28;20053;-79
2022/11/25 04:53:55;;;;;;;2.63;1.33;;;7.60;99.90;;;;;;4987083;28;20141;-78
2022/11/25 04:56:22;;;;;;;2.85;0.82;;;7.60;99.90;;;;;;4971216;28;20057;-78
2022/11/25 05:01:33;;;;;;;6.13;1.13;;;7.70;99.90;;;;;;4992083;28;20046;-79
2022/11/25 05:04:00;;;;;;;3.08;1.30;;;7.70;99.90;;;;;;4979306;28;20118;-79
2022/11/25 05:06:27;;;;;;;7.07;2.45;;;7.80;99.90;;;;;;4988448;28;20486;-78
2022/11/25 05:08:53;;;;;;;4.20;1.55;;;7.80;99.90;;;;;;4988389;28;20050;-79
2022/11/25 05:11:20;;;;;;;4.00;1.40;;;7.80;99.90;;;;;;4978341;28;20050;-77
2022/11/25 05:13:47;;;;;;;5.53;1.70;;;7.80;99.90;;;;;;4975352;28;20047;-78
2022/11/25 05:16:13;;;;;;;5.63;2.17;;;7.80;99.90;;;;;;4970875;28;20432;-78
2022/11/25 05:18:40;;;;;;;3.88;1.90;;;7.90;99.90;;;;;;4988811;28;20061;-78
2022/11/25 05:21:07;;;;;;;7.47;2.83;;;7.90;99.90;;;;;;4987398;28;20451;-78
2022/11/25 05:23:34;;;;;;;6.28;3.75;;;8.00;99.90;;;;;;4989003;28;20088;-78
2022/11/25 05:26:04;;;;;;;2.75;2.30;;;8.00;99.90;;;;;;4989221;28;20050;-79
2022/11/25 05:28:31;;;;;;;5.93;2.53;;;8.00;99.90;;;;;;4983886;28;20510;-78
2022/11/25 05:30:58;;;;;;;5.30;1.00;;;8.10;99.90;;;;;;4969944;28;20113;-77
2022/11/25 05:33:24;;;;;;;4.07;1.20;;;8.10;99.90;;;;;;4985102;28;20057;-79
2022/11/25 05:36:00;;;;;;;6.68;1.50;;;8.20;99.90;;;;;;4975101;28;20054;-76
2022/11/25 05:38:27;;;;;;;4.55;1.10;;;8.20;99.90;;;;;;4981611;28;20401;-76
2022/11/25 05:41:01;;;;;;;3.92;1.50;;;8.30;99.90;;;;;;4984517;28;20046;-78
2022/11/25 05:43:28;;;;;;;2.03;1.23;;;8.30;99.90;;;;;;4992102;28;20055;-77
2022/11/25 05:45:54;;;;;;;9.52;1.90;;;8.30;99.90;;;;;;4976912;28;20499;-77
2022/11/25 05:48:22;;;;;;;3.15;1.60;;;8.30;99.90;;;;;;4966251;28;20050;-77
2022/11/25 05:50:48;;;;;;;4.93;1.70;;;8.30;99.90;;;;;;4985370;28;20495;-76
2022/11/25 05:53:16;;;;;;;10.50;3.63;;;8.30;99.90;;;;;;4977551;28;20416;-77
2022/11/25 05:55:43;;;;;;;8.80;2.15;;;8.30;99.90;;;;;;4974603;28;20052;-77
2022/11/25 05:58:10;;;;;;;4.50;1.80;;;8.30;99.90;;;;;;4984387;28;20085;-78
2022/11/25 06:00:36;;;;;;;9.30;2.83;;;8.30;99.90;;;;;;4986879;28;20054;-77
2022/11/25 06:03:03;;;;;;;3.17;2.00;;;8.30;99.90;;;;;;4985110;28;20499;-78
2022/11/25 06:05:32;;;;;;;4.85;2.20;;;8.30;99.90;;;;;;4987249;28;20050;-79
2022/11/25 06:07:59;;;;;;;5.85;2.03;;;8.30;99.90;;;;;;4990255;28;20406;-78
2022/11/25 06:10:26;;;;;;;5.38;1.55;;;8.30;99.90;;;;;;4990659;28;20047;-77
2022/11/25 06:12:52;;;;;;;4.22;1.70;;;8.40;99.90;;;;;;4994229;28;20050;-78
2022/11/25 06:15:19;;;;;;;3.92;1.50;;;8.30;99.90;;;;;;4986274;28;20050;-78
2022/11/25 06:17:46;;;;;;;2.78;1.40;;;8.30;99.90;;;;;;4983274;28;20054;-79
2022/11/25 06:20:13;;;;;;;7.80;2.50;;;8.30;99.90;;;;;;4989382;28;20566;-78
2022/11/25 06:22:39;;;;;;;8.68;2.70;;;8.30;99.90;;;;;;4983506;28;20124;-78
2022/11/25 06:25:07;;;;;;;4.05;1.83;;;8.30;99.90;;;;;;4988728;28;20046;-79
2022/11/25 06:27:33;;;;;;;6.88;2.15;;;8.30;99.90;;;;;;4984150;28;20051;-78
2022/11/25 06:30:20;;;;;;;4.93;1.95;;;8.30;99.90;;;;;;4991057;28;20053;-78
2022/11/25 06:32:47;;;;;;;5.85;2.00;;;8.30;99.90;;;;;;4988841;28;20487;-78
2022/11/25 06:35:14;;;;;;;5.82;1.92;;;8.40;99.90;;;;;;4987540;28;20051;-78
2022/11/25 06:37:40;;;;;;;5.25;2.60;;;8.40;99.90;;;;;;4993445;28;20085;-77
2022/11/25 06:40:08;;;;;;;10.18;3.70;;;8.40;99.90;;;;;;4987135;28;20113;-78
2022/11/25 06:42:37;;;;;;;8.63;3.25;;;8.40;99.90;;;;;;4987471;28;20430;-78
2022/11/25 06:45:04;;;;;;;5.90;2.90;;;8.40;99.90;;;;;;4980259;28;20097;-76
2022/11/25 06:47:31;;;;;;;7.43;3.45;;;8.40;99.90;;;;;;4989970;28;20074;-78
2022/11/25 06:49:58;;;;;;;6.72;2.22;;;8.40;99.90;;;;;;4979067;28;20049;-78
2022/11/25 06:52:24;;;;;;;7.03;2.28;;;8.40;99.90;;;;;;4984529;28;20042;-78
2022/11/25 06:54:52;;;;;;;8.43;2.60;;;8.50;99.90;;;;;;4991456;28;20050;-78
2022/11/25 06:57:19;;;;;;;5.95;3.10;;;8.50;99.90;;;;;;4989422;28;20038;-79
2022/11/25 06:59:46;;;;;;;5.70;2.97;;;8.50;99.90;;;;;;4986496;28;20050;-78
2022/11/25 07:02:13;;;;;;;7.40;3.58;;;8.50;99.90;;;;;;4986726;28;20512;-78
2022/11/25 07:04:39;;;;;;;8.32;3.72;;;8.50;99.90;;;;;;4991338;28;20132;-78
2022/11/25 07:07:07;;;;;;;7.50;3.38;;;8.60;99.90;;;;;;4986894;28;20049;-78
2022/11/25 07:09:33;;;;;;;12.27;3.67;;;8.60;99.90;;;;;;4984502;28;20438;-78
2022/11/25 07:12:00;;;;;;;7.07;3.55;;;8.60;99.90;;;;;;4988344;28;20053;-78
2022/11/25 07:14:27;;;;;;;7.13;2.75;;;8.70;99.90;;;;;;4976584;28;20500;-78
2022/11/25 07:16:54;;;;;;;8.00;2.83;;;8.70;99.90;;;;;;4968692;28;20051;-79
2022/11/25 07:19:20;;;;;;;12.13;4.47;;;8.70;99.90;;;;;;4986551;28;20133;-79
2022/11/25 07:21:47;;;;;;;5.75;2.65;;;8.70;99.90;;;;;;4989099;28;20077;-79
2022/11/25 07:24:15;;;;;;;7.75;3.72;;;8.80;99.90;;;;;;4987354;28;20058;-78
2022/11/25 07:26:43;;;;;;;9.13;3.53;;;8.80;99.90;;;;;;4991318;28;20050;-78
2022/11/25 07:29:13;;;;;;;6.88;3.20;;;8.80;99.90;;;;;;4987569;28;20061;-78
2022/11/25 07:32:00;;;;;;;7.22;3.22;;;8.80;99.90;;;;;;4991277;28;20050;-78
2022/11/25 07:34:34;;;;;;;7.38;2.85;;;8.80;99.90;;;;;;4974025;28;20043;-78
2022/11/25 07:37:01;;;;;;;5.40;1.98;;;8.80;99.90;;;;;;4978029;28;20051;-79
2022/11/25 07:39:27;;;;;;;7.25;2.85;;;8.80;99.90;;;;;;4986485;28;20057;-78
2022/11/25 07:41:54;;;;;;;7.13;2.70;;;8.80;99.90;;;;;;4977088;28;20050;-79
2022/11/25 07:44:21;;;;;;;12.27;3.85;;;8.80;99.90;;;;;;4977759;28;20089;-78
2022/11/25 07:46:49;;;;;;;11.75;3.65;;;8.80;99.90;;;;;;4971947;28;20046;-79
2022/11/25 07:49:25;;;;;;;11.27;3.20;;;8.80;99.90;;;;;;4965274;28;20476;-78
2022/11/25 07:51:55;;;;;;;7.25;2.72;;;8.80;99.90;;;;;;4980874;28;20057;-78
2022/11/25 07:54:22;;;;;;;8.73;2.63;;;8.90;99.90;;;;;;4986722;28;20077;-78
2022/11/25 07:56:49;;;;;;;7.07;2.83;;;8.90;99.90;;;;;;4986753;28;20050;-78
2022/11/25 07:59:19;;;;;;;5.65;2.33;;;8.90;99.90;;;;;;4986683;28;20058;-76
2022/11/25 08:01:48;;;;;;;6.00;2.33;;;8.90;99.90;;;;;;4985998;28;20052;-78
2022/11/25 08:04:15;;;;;;;5.82;2.40;;;9.00;99.90;;;;;;4987426;28;20054;-78
2022/11/25 08:06:48;;;;;;;6.43;2.25;;;8.90;99.90;;;;;;4989453;28;20503;-78
2022/11/25 08:09:18;;;;;;;8.52;2.65;;;9.00;99.90;;;;;;4983021;28;20046;-80
2022/11/25 08:11:46;;;;;;;4.63;2.13;;;9.00;99.90;;;;;;4979193;28;20058;-78
2022/11/25 08:14:13;;;;;;;3.28;1.50;;;9.00;99.90;;;;;;4980368;28;20057;-77
2022/11/25 08:16:40;;;;;;;5.95;1.80;;;9.00;99.90;;;;;;4988987;28;20134;-78
2022/11/25 08:19:10;;;;;;;8.90;1.83;;;9.00;99.90;;;;;;4981269;28;20046;-78
2022/11/25 08:21:37;;;;;;;4.57;1.20;;;9.10;99.90;;;;;;4979530;28;20143;-78
2022/11/25 08:24:04;;;;;;;5.63;2.17;;;9.10;99.90;;;;;;4971388;28;20431;-78
2022/11/25 08:26:35;;;;;;;9.30;2.35;;;9.10;99.90;;;;;;4991717;28;20097;-79
2022/11/25 08:29:03;;;;;;;7.60;2.08;;;9.10;99.90;;;;;;4988655;28;20046;-79
2022/11/25 08:31:33;;;;;;;5.25;1.40;;;9.10;99.90;;;;;;4980373;28;20400;-78
2022/11/25 08:34:00;;;;;;;5.05;1.60;;;9.10;99.90;;;;;;4973099;28;20069;-78
2022/11/25 08:36:28;;;;;;;6.40;2.00;;;9.10;99.90;;;;;;4988510;28;20050;-79
2022/11/25 08:38:57;;;;;;;4.38;1.95;;;9.10;99.90;;;;;;4989989;28;20108;-79
2022/11/25 08:41:29;;;;;;;5.43;2.40;;;9.10;99.90;;;;;;4989233;28;20114;-79
2022/11/25 08:43:58;;;;;;;3.40;1.25;;;9.10;99.90;;;;;;4989508;28;20119;-79
2022/11/25 08:46:29;;;;;;;7.72;1.83;;;9.10;99.90;;;;;;4990612;28;20054;-79
2022/11/25 08:48:56;;;;;;;6.28;1.77;;;9.10;99.90;;;;;;4988877;28;20125;-78
2022/11/25 08:51:27;;;;;;;5.88;1.60;;;9.20;99.90;;;;;;4991101;28;20080;-78
2022/11/25 08:53:54;;;;;;;6.60;1.77;;;9.20;99.90;;;;;;4988674;28;20043;-79
2022/11/25 08:56:23;;;;;;;5.43;1.67;;;9.10;99.90;;;;;;4987814;28;20042;-79
2022/11/25 08:58:53;;;;;;;9.05;1.58;;;9.10;99.90;;;;;;4989475;28;20059;-78
2022/11/25 09:01:22;;;;;;;7.05;1.90;;;9.10;99.90;;;;;;4991018;28;20046;-77
2022/11/25 09:03:51;;;;;;;4.53;1.58;;;9.10;99.90;;;;;;4990800;28;20114;-78
2022/11/25 09:06:19;;;;;;;8.52;2.78;;;9.20;99.90;;;;;;4988681;28;20065;-78
2022/11/25 09:08:46;;;;;;;8.82;2.50;;;9.20;99.90;;;;;;4980985;28;20089;-77
2022/11/25 09:11:14;;;;;;;9.48;2.05;;;9.20;99.90;;;;;;4988357;28;20085;-78
2022/11/25 09:13:40;;;;;;;4.97;1.60;;;9.20;99.90;;;;;;4989528;28;20046;-79
2022/11/25 09:16:08;;;;;;;7.32;1.90;;;9.20;99.90;;;;;;4988647;28;20055;-78
2022/11/25 09:18:36;;;;;;;7.63;1.98;;;9.30;99.90;;;;;;4989639;28;20109;-78
2022/11/25 09:21:21;;;;;;;5.82;1.63;;;9.30;99.90;;;;;;4991139;28;20058;-78
2022/11/25 09:23:49;;;;;;;5.70;2.33;;;9.30;99.90;;;;;;4970570;28;20046;-78
2022/11/25 09:26:24;;;;;;;5.70;2.10;;;9.40;99.90;;;;;;4990637;28;20069;-78
2022/11/25 09:28:51;;;;;;;4.85;1.58;;;9.50;99.90;;;;;;4991294;28;20043;-78
2022/11/25 09:31:19;;;;;;;8.52;1.70;;;9.50;99.90;;;;;;4988673;28;20081;-78
2022/11/25 09:33:46;;;;;;;5.30;1.67;;;9.60;99.90;;;;;;4980049;28;20093;-78
2022/11/25 09:36:14;;;;;;;3.00;1.40;;;9.60;99.90;;;;;;4988812;28;20053;-78
2022/11/25 09:38:44;;;;;;;7.25;1.63;;;9.70;99.90;;;;;;4988128;28;20174;-78
2022/11/25 09:46:40;;;;;;;4.93;1.95;;;9.80;99.90;;;;;;4989112;28;20051;-77
2022/11/25 09:47:23;;;;;;;7.20;1.75;;;9.80;99.90;;;;;;4988839;28;20358;-78
2022/11/25 09:50:17;;;;;;;5.47;1.60;;;9.90;99.90;;;;;;4987653;28;20507;-78
2022/11/25 09:53:05;;;;;;;4.13;1.23;;;9.90;99.90;;;;;;4987794;28;20050;-78
2022/11/25 09:55:38;;;;;;;5.03;1.52;;;10.00;99.90;;;;;;4986214;28;20061;-78
2022/11/25 09:58:43;;;;;;;7.28;1.20;;;10.00;99.90;;;;;;4972682;28;20069;-78
2022/11/25 10:01:18;;;;;;;8.85;1.63;;;10.10;99.90;;;;;;4985884;28;20054;-78
2022/11/25 10:04:02;;;;;;;5.88;2.17;;;10.20;99.90;;;;;;4986364;28;20054;-78
2022/11/25 10:06:34;;;;;;;5.57;1.90;;;10.30;99.90;;;;;;4969821;28;20055;-78
2022/11/25 10:09:13;;;;;;;9.50;1.48;;;10.30;99.90;;;;;;4978486;28;20043;-78
2022/11/25 10:11:53;;;;;;;3.72;1.30;;;10.40;99.90;;;;;;4985966;28;20085;-78
2022/11/25 10:14:31;;;;;;;2.13;1.30;;;10.40;99.90;;;;;;4990780;28;20224;-79
2022/11/25 10:17:13;;;;;;;4.97;1.40;;;10.50;99.90;;;;;;4972112;28;20177;-77
2022/11/25 10:20:00;;;;;;;3.97;1.50;;;10.60;99.90;;;;;;4979563;28;20065;-79
2022/11/25 10:22:32;;;;;;;4.72;1.50;;;10.60;99.90;;;;;;4990934;28;20145;-79
2022/11/25 10:25:21;;;;;;;4.82;1.65;;;10.60;99.90;;;;;;4986908;28;20508;-79
2022/11/25 10:27:59;;;;;;;5.20;1.33;;;10.60;99.90;;;;;;4989694;28;20129;-79
2022/11/25 10:30:47;;;;;;;5.38;1.92;;;10.70;99.90;;;;;;4987697;28;20046;-79
2022/11/25 10:33:20;;;;;;;7.78;1.60;;;10.60;99.90;;;;;;4977412;28;20051;-79
2022/11/25 10:35:56;;;;;;;2.58;1.20;;;10.50;99.90;;;;;;4988755;28;20051;-79
2022/11/25 10:38:35;;;;;;;3.97;1.35;;;10.50;99.90;;;;;;4990245;28;20054;-76
2022/11/25 10:41:03;;;;;;;4.93;1.20;;;10.40;99.90;;;;;;4980246;28;20397;-77
2022/11/25 10:43:31;;;;;;;3.35;1.65;;;10.40;99.90;;;;;;4987900;28;20102;-77
2022/11/25 10:46:28;;;;;;;4.75;1.35;;;10.40;99.90;;;;;;4984060;28;20047;-78
2022/11/25 10:49:33;;;;;;;5.53;1.70;;;10.30;99.90;;;;;;4992972;28;20055;-78
2022/11/25 10:52:00;;;;;;;6.72;1.17;;;10.30;99.90;;;;;;4973924;28;20088;-78
2022/11/25 10:54:28;;;;;;;7.68;1.58;;;10.20;99.90;;;;;;4984180;28;20342;-78
2022/11/25 10:57:03;;;;;;;6.03;1.33;;;10.20;99.90;;;;;;4990407;28;20130;-77
2022/11/25 10:59:33;;;;;;;3.67;1.17;;;10.20;99.90;;;;;;4980459;28;20133;-78
2022/11/25 11:02:23;;;;;;;3.25;1.10;;;10.20;99.90;;;;;;4993401;28;20066;-79
2022/11/25 11:04:52;;;;;;;3.38;1.30;;;10.20;99.90;;;;;;4992601;28;20059;-79
2022/11/25 11:07:19;;;;;;;7.15;1.23;;;10.30;99.90;;;;;;4992573;28;20059;-78
2022/11/25 11:09:47;;;;;;;3.70;1.30;;;10.20;99.90;;;;;;4991672;28;20114;-78
2022/11/25 11:12:26;;;;;;;3.28;1.00;;;10.30;99.90;;;;;;4985954;28;20089;-78
2022/11/25 11:15:11;;;;;;;3.75;1.00;;;10.30;99.90;;;;;;4976274;28;20484;-79
2022/11/25 11:17:37;;;;;;;5.07;1.60;;;10.30;99.90;;;;;;4977080;28;20492;-78
2022/11/25 11:20:07;;;;;;;2.55;1.30;;;10.30;99.90;;;;;;4967221;28;20518;-77
2022/11/25 11:22:35;;;;;;;4.70;1.20;;;10.30;99.90;;;;;;4966947;28;20141;-78
2022/11/25 11:25:08;;;;;;;2.95;1.13;;;10.30;99.90;;;;;;4986984;28;20407;-78
2022/11/25 11:27:37;;;;;;;6.30;1.40;;;10.30;99.90;;;;;;4985224;28;20484;-78
2022/11/25 11:30:14;;;;;;;3.47;1.23;;;10.30;99.90;;;;;;4984201;28;20047;-77
2022/11/25 11:32:52;;;;;;;7.28;1.90;;;10.30;99.90;;;;;;4985643;28;20050;-78
2022/11/25 11:35:34;;;;;;;6.57;1.40;;;10.30;99.90;;;;;;4975870;28;20438;-77
2022/11/25 11:38:26;;;;;;;6.40;1.60;;;10.20;99.90;;;;;;4970204;28;20051;-78
2022/11/25 11:41:16;;;;;;;4.95;1.45;;;10.20;99.90;;;;;;4988075;28;20086;-77
2022/11/25 11:44:01;;;;;;;5.35;1.80;;;10.20;99.90;;;;;;4989132;28;20051;-78
2022/11/25 11:46:49;;;;;;;5.65;1.52;;;10.20;99.90;;;;;;4989856;28;20137;-77
2022/11/25 11:49:25;;;;;;;6.18;1.60;;;10.20;99.90;;;;;;4972113;28;20047;-79
2022/11/25 11:52:30;;;;;;;7.40;2.00;;;10.30;99.90;;;;;;4979854;28;20567;-78
2022/11/25 11:55:22;;;;;;;5.03;1.90;;;10.30;99.90;;;;;;4974433;28;20050;-78
2022/11/25 11:58:07;;;;;;;5.40;2.17;;;10.30;99.90;;;;;;4991877;28;20066;-78
2022/11/25 12:00:47;;;;;;;5.60;2.20;;;10.30;99.90;;;;;;4990014;28;20061;-77
2022/11/25 12:03:19;;;;;;;4.13;1.95;;;10.30;99.90;;;;;;4990631;28;20490;-77
2022/11/25 12:05:52;;;;;;;3.78;2.03;;;10.40;99.90;;;;;;4993423;28;20513;-79
2022/11/25 12:08:30;;;;;;;5.75;2.38;;;10.50;99.90;;;;;;4976704;28;20118;-78
2022/11/25 12:11:02;;;;;;;4.70;2.30;;;10.50;99.90;;;;;;4989925;28;20049;-76
2022/11/25 12:13:51;;;;;;;5.47;2.72;;;10.60;99.90;;;;;;4991041;28;20057;-76
2022/11/25 12:16:38;;;;;;;5.45;2.70;;;10.60;99.90;;;;;;4974608;28;20149;-77
2022/11/25 12:19:25;;;;;;;6.45;2.83;;;10.60;99.90;;;;;;4989816;28;20133;-78
2022/11/25 12:22:05;;;;;;;5.18;2.50;;;10.60;99.90;;;;;;4986893;28;20428;-79
2022/11/25 12:24:53;;;;;;;3.95;2.33;;;10.60;99.90;;;;;;4983341;28;20070;-77
2022/11/25 12:27:30;;;;;;;6.72;2.50;;;10.70;99.90;;;;;;4969417;28;20043;-77
2022/11/25 12:30:11;;;;;;;7.07;2.40;;;10.60;99.90;;;;;;4981039;28;20049;-78
2022/11/25 12:32:50;;;;;;;5.70;2.25;;;10.70;99.90;;;;;;4989488;28;20039;-78
2022/11/25 12:35:26;;;;;;;8.50;2.63;;;10.70;99.90;;;;;;4985659;28;20053;-78
2022/11/25 12:38:14;;;;;;;4.85;2.65;;;10.70;99.90;;;;;;4983746;28;20078;-78
2022/11/25 12:40:55;;;;;;;7.25;3.10;;;10.80;99.90;;;;;;4990810;28;20563;-77
2022/11/25 12:43:50;;;;;;;5.78;2.40;;;10.70;99.90;;;;;;4985244;28;20137;-77
2022/11/25 12:46:41;;;;;;;3.97;2.05;;;10.80;99.90;;;;;;4983649;28;20047;-77
2022/11/25 12:49:26;;;;;;;6.90;2.65;;;10.80;99.90;;;;;;4975427;28;20138;-77
2022/11/25 12:52:28;;;;;;;5.93;2.33;;;10.80;99.90;;;;;;4980763;28;20052;-77
2022/11/25 12:55:00;;;;;;;6.68;2.20;;;10.80;99.90;;;;;;4987862;28;20046;-76
2022/11/25 12:57:46;;;;;;;6.07;2.47;;;10.80;99.90;;;;;;4999020;28;20042;-78
2022/11/25 13:00:30;;;;;;;7.65;2.45;;;10.80;99.90;;;;;;4990904;28;20479;-78
2022/11/25 13:03:27;;;;;;;8.18;2.65;;;10.80;99.90;;;;;;4981748;28;20050;-79
2022/11/25 13:06:18;;;;;;;6.32;2.10;;;10.80;99.90;;;;;;4993113;28;20056;-78
2022/11/25 13:08:48;;;;;;;4.85;2.35;;;10.90;99.90;;;;;;4993641;28;20050;-78
2022/11/25 13:11:46;;;;;;;5.75;1.85;;;11.00;99.90;;;;;;4992974;28;20047;-77
2022/11/25 13:15:10;;;;;;;6.38;2.05;;;11.00;99.90;;;;;;4972324;28;20042;-78
2022/11/25 13:17:43;;;;;;;5.70;1.80;;;11.10;99.90;;;;;;4994418;28;20046;-78
2022/11/25 13:20:27;;;;;;;4.13;1.55;;;11.10;99.90;;;;;;4993265;28;20053;-77
2022/11/25 13:23:04;;;;;;;4.90;1.83;;;11.20;99.90;;;;;;4977764;28;20053;-77
2022/11/25 13:25:31;;;;;;;9.70;2.78;;;11.20;99.90;;;;;;4989075;28;20073;-78
2022/11/25 13:27:59;;;;;;;12.55;3.70;;;11.30;99.90;;;;;;4981564;28;20046;-78
2022/11/25 13:30:32;;;;;;;6.00;2.22;;;11.30;99.90;;;;;;4986344;28;20047;-78
2022/11/25 13:33:11;;;;;;;6.43;1.77;;;11.30;99.90;;;;;;4973467;28;20073;-77
2022/11/25 13:35:54;;;;;;;7.70;1.95;;;11.30;99.90;;;;;;4989001;28;20084;-78
2022/11/25 13:38:37;;;;;;;7.68;1.67;;;11.40;99.90;;;;;;4988846;28;20076;-77
2022/11/25 13:41:22;;;;;;;5.68;1.55;;;11.30;99.90;;;;;;4984448;28;20055;-78
2022/11/25 13:44:03;;;;;;;6.68;1.55;;;11.30;99.90;;;;;;4990958;28;20047;-78
2022/11/25 13:46:35;;;;;;;;;;;11.30;99.90;;;;;;4989744;28;20210;-78
2022/11/25 13:49:05;;;;;;;5.65;1.77;;;11.30;99.90;;;;;;4989596;28;19964;-79
2022/11/25 13:51:32;;;;;;;9.27;2.28;;;11.30;99.90;;;;;;4986402;28;20043;-78
2022/11/25 13:54:06;;;;;;;6.75;2.00;;;11.20;99.90;;;;;;4989184;28;20053;-79
2022/11/25 13:56:36;;;;;;;9.30;2.17;;;11.20;99.90;;;;;;4995513;28;20110;-78
2022/11/25 13:59:15;;;;;;;6.63;1.67;;;11.20;99.90;;;;;;4988555;28;20067;-78
2022/11/25 14:04:13;;;;;;;8.57;2.05;;;11.20;99.90;;;;;;4966595;28;20043;-76
2022/11/25 14:06:56;;;;;;;4.63;2.33;;;11.10;99.90;;;;;;4974975;28;20057;-77
2022/11/25 14:09:36;;;;;;;5.45;1.98;;;11.10;99.90;;;;;;4959922;28;20057;-78
2022/11/25 14:12:28;;;;;;;5.00;1.60;;;11.00;99.90;;;;;;4977968;28;20126;-78
2022/11/25 14:15:37;;;;;;;7.65;2.15;;;11.10;99.90;;;;;;4973627;28;20055;-78
2022/11/25 14:18:11;;;;;;;6.00;2.08;;;11.10;99.90;;;;;;4972250;28;20069;-77
2022/11/25 14:20:43;;;;;;;7.55;2.15;;;11.00;99.90;;;;;;4961515;28;20054;-75
2022/11/25 14:23:28;;;;;;;7.32;2.65;;;11.00;99.90;;;;;;4964912;28;20062;-75
2022/11/25 14:26:02;;;;;;;9.68;3.13;;;11.00;99.90;;;;;;4966827;28;20077;-77
2022/11/25 14:28:53;;;;;;;7.25;2.90;;;11.00;99.90;;;;;;4963564;28;20051;-76
2022/11/25 14:31:25;;;;;;;6.22;2.13;;;11.00;99.90;;;;;;4960466;28;20402;-76
2022/11/25 14:34:19;;;;;;;9.00;3.75;;;10.90;99.90;;;;;;4961795;28;20055;-77
2022/11/25 14:36:56;;;;;;;7.38;2.95;;;10.90;99.90;;;;;;4964176;28;20047;-76
2022/11/25 14:39:42;;;;;;;9.60;2.63;;;10.90;99.90;;;;;;4965557;28;20054;-76
2022/11/25 14:42:15;;;;;;;12.45;3.15;;;10.90;99.90;;;;;;4961357;28;20057;-77
2022/11/25 14:44:59;;;;;;;11.10;3.53;;;10.90;99.90;;;;;;4968114;28;20059;-76
2022/11/25 14:47:31;;;;;;;11.25;3.65;;;10.90;99.90;;;;;;4966858;28;20078;-78
2022/11/25 14:50:14;;;;;;;13.48;2.80;;;10.90;99.90;;;;;;4963612;28;20126;-76
2022/11/25 14:53:05;;;;;;;11.27;2.58;;;10.80;99.90;;;;;;4960899;28;20066;-76
2022/11/25 14:55:32;;;;;;;8.80;2.75;;;10.80;99.90;;;;;;4964308;28;20504;-76
2022/11/25 14:57:59;;;;;;;8.20;2.78;;;10.70;99.90;;;;;;4965840;28;20046;-76
2022/11/25 15:00:26;;;;;;;9.45;2.92;;;10.70;99.90;;;;;;4962973;28;20062;-76
2022/11/25 15:02:56;;;;;;;10.35;3.00;;;10.60;99.90;;;;;;4966469;28;20065;-77
2022/11/25 15:05:30;;;;;;;7.40;3.17;;;10.60;99.90;;;;;;4960714;28;20047;-76
2022/11/25 15:08:08;;;;;;;8.77;3.00;;;10.60;99.90;;;;;;4965450;28;20057;-77
2022/11/25 15:10:49;;;;;;;11.75;5.32;;;10.60;99.90;;;;;;4965311;28;20574;-76
2022/11/25 15:13:38;;;;;;;9.85;3.65;;;10.50;99.90;;;;;;4964857;28;20420;-76
2022/11/25 15:16:12;;;;;;;9.38;3.08;;;10.50;99.90;;;;;;4972251;28;20126;-76
2022/11/25 15:18:46;;;;;;;9.38;2.85;;;10.40;99.90;;;;;;4964278;28;20082;-76
2022/11/25 15:21:15;;;;;;;7.47;2.50;;;10.40;99.90;;;;;;4966815;28;20086;-77
2022/11/25 15:23:41;;;;;;;9.70;2.60;;;10.40;99.90;;;;;;4968977;28;20459;-76
2022/11/25 15:26:27;;;;;;;9.23;2.67;;;10.40;99.90;;;;;;4973507;28;20070;-77
2022/11/25 15:29:03;;;;;;;9.57;2.95;;;10.30;99.90;;;;;;4958361;28;20427;-77
2022/11/25 15:31:32;;;;;;;8.30;2.13;;;10.20;99.90;;;;;;4968302;28;20039;-76
2022/11/25 15:34:02;;;;;;;8.05;2.20;;;10.20;99.90;;;;;;4968978;28;20047;-77
2022/11/25 15:36:29;;;;;;;12.55;2.83;;;10.00;99.90;;;;;;4969884;28;20050;-77
2022/11/25 15:39:15;;;;;;;8.90;3.13;;;10.00;99.90;;;;;;4972960;28;20117;-77
2022/11/25 15:41:44;;;;;;;11.93;2.45;;;9.90;99.90;;;;;;4972364;28;20051;-77
2022/11/25 15:44:29;;;;;;;15.07;3.15;;;9.80;99.90;;;;;;4967863;28;20069;-77
2022/11/25 15:46:59;;;;;;;6.65;2.90;;;9.70;99.90;;;;;;4967313;28;20062;-77
2022/11/25 15:49:26;;;;;;;9.23;2.80;;;9.70;99.90;;;;;;4969361;28;20059;-76
2022/11/25 15:51:59;;;;;;;14.57;3.92;;;9.60;99.90;;;;;;4968450;28;20057;-76
2022/11/25 15:54:36;;;;;;;13.32;3.38;;;9.60;99.90;;;;;;4964327;28;20134;-77
2022/11/25 15:57:14;;;;;;;12.18;3.75;;;9.50;99.90;;;;;;4967566;28;20082;-76
2022/11/25 15:59:44;;;;;;;11.82;3.42;;;9.40;99.90;;;;;;4967759;28;20062;-76
2022/11/25 16:02:38;;;;;;;8.52;3.78;;;9.30;99.90;;;;;;4960076;28;20074;-77
2022/11/25 16:05:11;;;;;;;9.55;3.65;;;9.30;99.90;;;;;;4967648;28;20082;-79
2022/11/25 16:07:50;;;;;;;13.43;3.90;;;9.20;99.90;;;;;;4963051;28;20485;-76
2022/11/25 16:10:30;;;;;;;13.13;3.80;;;9.20;99.90;;;;;;4964922;28;20047;-77
2022/11/25 16:13:21;;;;;;;15.55;4.35;;;9.10;99.90;;;;;;4968805;28;20054;-76
2022/11/25 16:15:53;;;;;;;29.08;10.35;;;9.00;99.90;;;;;;4971100;28;20047;-76
2022/11/25 16:18:23;;;;;;;25.58;8.50;;;9.00;99.90;;;;;;4964919;28;20170;-76
2022/11/25 16:21:16;;;;;;;24.08;6.65;;;9.00;99.90;;;;;;4963915;28;20051;-76
2022/11/25 16:23:47;;;;;;;17.52;5.13;;;8.90;99.90;;;;;;4972458;28;20129;-76
2022/11/25 16:26:37;;;;;;;8.93;4.10;;;8.90;99.90;;;;;;4963442;28;20051;-76
2022/11/25 16:29:16;;;;;;;14.32;4.20;;;8.90;99.90;;;;;;4962435;28;20314;-76
2022/11/25 16:31:42;;;;;;;11.95;3.78;;;8.90;99.90;;;;;;4961282;28;20046;-77
2022/11/25 16:34:18;;;;;;;14.70;5.50;;;8.90;99.90;;;;;;4967383;28;20039;-75
2022/11/25 16:36:45;;;;;;;16.65;7.18;;;8.90;99.90;;;;;;4969567;28;20082;-76
2022/11/25 16:39:12;;;;;;;16.63;6.75;;;8.90;99.90;;;;;;4964964;28;20421;-77
2022/11/25 16:41:40;;;;;;;27.42;7.70;;;8.80;99.90;;;;;;4969962;28;20065;-76
2022/11/25 16:44:17;;;;;;;19.65;7.45;;;8.80;99.90;;;;;;4969798;28;20062;-76
2022/11/25 16:46:44;;;;;;;18.52;6.28;;;8.80;99.90;;;;;;4971026;28;20428;-77
2022/11/25 16:49:16;;;;;;;13.80;5.70;;;8.90;99.90;;;;;;4964804;28;20047;-76
2022/11/25 16:51:43;;;;;;;15.30;6.43;;;8.90;99.90;;;;;;4968688;28;20523;-76
2022/11/25 16:54:11;;;;;;;23.38;11.38;;;8.80;99.90;;;;;;4968088;28;20591;-76
2022/11/25 16:56:43;;;;;;;20.55;8.63;;;8.90;99.90;;;;;;4973519;28;20058;-77
2022/11/25 16:59:27;;;;;;;11.60;5.40;;;8.90;99.90;;;;;;4971012;28;20047;-77
2022/11/25 17:01:54;;;;;;;17.00;5.18;;;8.90;99.90;;;;;;4968048;28;20416;-74
2022/11/25 17:04:21;;;;;;;14.90;5.40;;;8.90;99.90;;;;;;4966406;28;20047;-77
2022/11/25 17:06:47;;;;;;;15.30;6.25;;;9.00;99.90;;;;;;4973936;28;20059;-77
2022/11/25 17:09:34;;;;;;;18.17;5.40;;;9.00;99.90;;;;;;4967733;28;20058;-77
2022/11/25 17:12:01;;;;;;;15.77;5.20;;;9.00;99.90;;;;;;4970920;28;20054;-77
2022/11/25 17:14:31;;;;;;;11.68;4.68;;;9.10;99.90;;;;;;4967847;28;20055;-77
2022/11/25 17:16:59;;;;;;;9.88;3.50;;;9.10;99.90;;;;;;4965228;28;20081;-76
2022/11/25 17:19:26;;;;;;;9.45;3.17;;;9.10;99.90;;;;;;4968363;28;20051;-76
2022/11/25 17:21:53;;;;;;;11.32;2.75;;;9.20;99.90;;;;;;4972872;28;20055;-77
2022/11/25 17:24:22;;;;;;;11.10;3.33;;;9.20;99.90;;;;;;4963776;28;20054;-77
2022/11/25 17:26:58;;;;;;;14.60;3.05;;;9.20;99.90;;;;;;4968094;28;20050;-77
2022/11/25 17:29:34;;;;;;;14.48;4.93;;;9.20;99.90;;;;;;4965265;28;20047;-78
2022/11/25 17:32:02;;;;;;;12.85;5.97;;;9.30;99.90;;;;;;4967514;28;20531;-77
2022/11/25 17:34:29;;;;;;;14.32;5.35;;;9.30;99.90;;;;;;4965579;28;20213;-77
2022/11/25 17:37:05;;;;;;;16.13;5.22;;;9.30;99.90;;;;;;4965992;28;20090;-77
2022/11/25 17:39:32;;;;;;;14.60;5.57;;;9.30;99.90;;;;;;4967402;28;20054;-77
2022/11/25 17:42:01;;;;;;;16.75;5.07;;;9.40;99.90;;;;;;4962121;28;20051;-77
2022/11/25 17:44:29;;;;;;;18.30;4.25;;;9.40;99.90;;;;;;4965412;28;20101;-77
2022/11/25 17:46:56;;;;;;;13.18;3.00;;;9.40;99.90;;;;;;4969953;28;20110;-77
2022/11/25 17:49:23;;;;;;;12.73;3.60;;;9.40;99.90;;;;;;4970367;28;20055;-77
2022/11/25 17:51:50;;;;;;;10.00;3.03;;;9.50;99.90;;;;;;4969779;28;20055;-77
2022/11/25 17:54:17;;;;;;;13.55;3.67;;;9.50;99.90;;;;;;4969307;28;20058;-78